Time;durP1;ratioP1;P1;durP2;ratioP2;P2;SDS_P1;SDS_P2;PMS_P1;PMS_P2;Temp;Humidity;BMP_temperature;BMP_pressure;BME280_temperature;BME280_humidity;BME280_pressure;Samples;Min_cycle;Max_cycle;Signal;HPM_P1;HPM_P2
2024/01/26 00:00:08;;;;;;;204.68;65.50;;;;;;;10.15;100.00;102366.72;5082431;28;20078;-73
2024/01/26 00:02:40;;;;;;;192.35;65.82;;;;;;;10.07;100.00;102357.19;5071380;28;20103;-73
2024/01/26 00:05:06;;;;;;;200.88;64.00;;;;;;;10.00;100.00;102357.47;5073832;28;20036;-73
2024/01/26 00:07:31;;;;;;;177.45;61.60;;;;;;;10.07;100.00;102358.97;5082251;28;20041;-73
2024/01/26 00:09:57;;;;;;;187.75;63.58;;;;;;;10.10;100.00;102354.41;5075494;28;20045;-72
2024/01/26 00:12:23;;;;;;;188.80;65.63;;;;;;;10.12;100.00;102351.69;5077576;28;20441;-75
2024/01/26 00:14:49;;;;;;;168.20;60.35;;;;;;;10.12;100.00;102352.56;5078753;28;20109;-74
2024/01/26 00:17:15;;;;;;;188.52;60.65;;;;;;;10.11;100.00;102350.81;5073201;28;20021;-75
2024/01/26 00:19:40;;;;;;;179.93;63.38;;;;;;;10.06;100.00;102350.13;5078269;28;20474;-74
2024/01/26 00:22:06;;;;;;;162.95;59.33;;;;;;;10.12;100.00;102357.00;5073581;28;20205;-74
2024/01/26 00:24:31;;;;;;;205.43;65.25;;;;;;;10.09;100.00;102358.00;5073136;28;20069;-74
2024/01/26 00:26:58;;;;;;;183.10;61.35;;;;;;;10.02;100.00;102343.16;5077821;28;20036;-75
2024/01/26 00:29:24;;;;;;;175.05;61.83;;;;;;;10.03;100.00;102344.88;5079525;28;20039;-74
2024/01/26 00:31:49;;;;;;;194.88;65.07;;;;;;;9.96;100.00;102353.19;5069209;28;20046;-73
2024/01/26 00:34:15;;;;;;;188.00;63.00;;;;;;;10.01;100.00;102356.56;5072134;28;20925;-74
2024/01/26 00:36:40;;;;;;;188.05;61.22;;;;;;;10.00;100.00;102346.81;5077880;28;20040;-74
2024/01/26 00:39:09;;;;;;;195.48;65.15;;;;;;;9.95;100.00;102354.13;5077579;28;20028;-75
2024/01/26 00:41:35;;;;;;;188.98;63.75;;;;;;;10.04;100.00;102344.00;5074886;28;20055;-74
2024/01/26 00:44:00;;;;;;;174.13;61.28;;;;;;;10.08;100.00;102340.25;5073763;28;20450;-72
2024/01/26 00:46:26;;;;;;;172.43;59.78;;;;;;;10.11;100.00;102339.28;5083839;28;20477;-73
2024/01/26 00:48:51;;;;;;;164.55;57.42;;;;;;;10.20;100.00;102332.75;5075608;28;20045;-73
2024/01/26 00:51:17;;;;;;;183.50;60.03;;;;;;;10.16;100.00;102329.31;5075910;28;20041;-73
2024/01/26 00:53:42;;;;;;;172.35;60.25;;;;;;;10.05;100.00;102329.72;5080135;28;20114;-73
2024/01/26 00:56:08;;;;;;;161.43;58.03;;;;;;;10.13;100.00;102327.63;5082332;28;20053;-73
2024/01/26 00:58:34;;;;;;;210.68;69.78;;;;;;;10.13;100.00;102324.09;5044842;28;20028;-72
2024/01/26 01:01:00;;;;;;;177.50;64.60;;;;;;;10.18;100.00;102323.94;5076945;28;20036;-73
2024/01/26 01:03:26;;;;;;;199.60;69.80;;;;;;;10.20;100.00;102320.28;5097947;27;20039;-73
2024/01/26 01:05:51;;;;;;;214.93;70.03;;;;;;;10.20;100.00;102325.63;5081247;28;20493;-74
2024/01/26 01:08:17;;;;;;;219.27;73.78;;;;;;;10.09;100.00;102319.81;5074134;28;20136;-74
2024/01/26 01:10:42;;;;;;;203.63;70.53;;;;;;;10.18;100.00;102331.91;5080778;28;20039;-73
2024/01/26 01:13:10;;;;;;;165.80;62.70;;;;;;;10.23;100.00;102321.97;5058435;28;20090;-73
2024/01/26 01:15:37;;;;;;;201.75;67.80;;;;;;;10.28;100.00;102317.34;5075479;28;20029;-73
2024/01/26 01:18:05;;;;;;;156.98;58.92;;;;;;;10.20;100.00;102324.75;5066894;28;20075;-73
2024/01/26 01:20:31;;;;;;;180.60;64.28;;;;;;;10.14;100.00;102323.19;5053379;28;20031;-73
2024/01/26 01:22:58;;;;;;;168.52;62.88;;;;;;;10.25;100.00;102320.16;5083579;28;20040;-75
2024/01/26 01:25:25;;;;;;;169.32;63.20;;;;;;;10.13;100.00;102327.63;5079804;28;20066;-72
2024/01/26 01:27:50;;;;;;;160.02;60.90;;;;;;;10.20;100.00;102320.28;5080463;28;20037;-72
2024/01/26 01:30:16;;;;;;;167.38;63.22;;;;;;;10.27;100.00;102320.94;5087471;28;20039;-75
2024/01/26 01:32:42;;;;;;;186.27;65.00;;;;;;;10.13;100.00;102324.09;5077701;28;20797;-73
2024/01/26 01:35:08;;;;;;;145.95;58.13;;;;;;;10.15;100.00;102326.72;5077816;28;20845;-73
2024/01/26 01:37:34;;;;;;;171.10;61.60;;;;;;;10.17;100.00;102317.72;5059228;28;20069;-72
2024/01/26 01:40:00;;;;;;;155.38;59.10;;;;;;;10.20;100.00;102322.09;5076428;28;21344;-72
2024/01/26 01:42:25;;;;;;;144.07;57.03;;;;;;;10.25;100.00;102312.16;5079553;28;20084;-72
2024/01/26 01:44:52;;;;;;;168.98;61.35;;;;;;;10.11;100.00;102300.19;5080442;28;20040;-72
2024/01/26 01:47:18;;;;;;;165.88;58.65;;;;;;;10.18;100.00;102303.47;5074011;28;20032;-71
2024/01/26 01:49:44;;;;;;;142.80;57.78;;;;;;;10.24;100.00;102297.06;5074780;28;20043;-72
2024/01/26 01:52:15;;;;;;;139.35;56.22;;;;;;;10.23;100.00;102289.97;5076772;28;20043;-74
2024/01/26 01:54:41;;;;;;;135.52;55.95;;;;;;;10.22;100.00;102286.44;5081907;28;20036;-71
2024/01/26 01:57:09;;;;;;;146.18;58.42;;;;;;;10.27;100.00;102283.63;5078035;28;20028;-73
2024/01/26 01:59:35;;;;;;;141.50;55.63;;;;;;;10.29;100.00;102266.66;5062708;28;20089;-72
2024/01/26 02:02:01;;;;;;;135.05;56.17;;;;;;;10.16;100.00;102262.69;5081862;28;20089;-76
2024/01/26 02:04:27;;;;;;;147.57;55.47;;;;;;;10.26;100.00;102276.56;5074886;28;20086;-72
2024/01/26 02:06:57;;;;;;;127.05;52.65;;;;;;;10.25;100.00;102277.50;5096082;27;20036;-73
2024/01/26 02:09:22;;;;;;;142.40;56.25;;;;;;;10.27;100.00;102283.63;5076962;28;20544;-72
2024/01/26 02:11:49;;;;;;;157.75;58.75;;;;;;;10.26;100.00;102266.75;5059536;28;20037;-72
2024/01/26 02:14:14;;;;;;;110.82;50.85;;;;;;;10.27;100.00;102256.97;5072310;28;20025;-72
2024/01/26 02:16:50;;;;;;;131.00;53.53;;;;;;;10.19;100.00;102261.69;5074278;28;20044;-73
2024/01/26 02:19:16;;;;;;;124.57;50.50;;;;;;;10.28;100.00;102269.34;5075991;28;20029;-73
2024/01/26 02:21:42;;;;;;;119.93;50.42;;;;;;;10.22;100.00;102266.91;5079848;28;20067;-73
2024/01/26 02:24:08;;;;;;;117.75;48.83;;;;;;;10.17;100.00;102269.75;5075396;28;20725;-73
2024/01/26 02:26:34;;;;;;;117.57;47.50;;;;;;;10.26;100.00;102263.22;5074734;28;20032;-72
2024/01/26 02:29:00;;;;;;;112.50;49.03;;;;;;;10.24;100.00;102254.41;5076115;28;20128;-73
2024/01/26 02:31:26;;;;;;;110.95;48.88;;;;;;;10.22;100.00;102261.56;5082626;28;20089;-73
2024/01/26 02:33:51;;;;;;;116.63;48.92;;;;;;;10.24;100.00;102260.63;5053029;28;20819;-72
2024/01/26 02:36:17;;;;;;;95.10;45.33;;;;;;;10.26;100.00;102249.91;5072096;28;20542;-73
2024/01/26 02:38:42;;;;;;;117.15;48.60;;;;;;;10.22;100.00;102234.91;5078171;28;20035;-73
2024/01/26 02:41:11;;;;;;;118.32;47.88;;;;;;;10.18;100.00;102214.63;5080439;28;20535;-73
2024/01/26 02:43:36;;;;;;;111.03;47.70;;;;;;;10.22;100.00;102211.78;5054054;28;20043;-73
2024/01/26 02:46:11;;;;;;;108.53;45.25;;;;;;;10.20;100.00;102211.00;5060933;28;20033;-72
2024/01/26 02:48:37;;;;;;;96.32;43.15;;;;;;;10.22;100.00;102210.94;5080836;28;20147;-73
2024/01/26 02:51:06;;;;;;;92.35;42.83;;;;;;;10.18;100.00;102194.16;5073155;28;20039;-72
2024/01/26 02:53:32;;;;;;;95.20;41.03;;;;;;;10.24;100.00;102195.75;5079107;28;20032;-73
2024/01/26 02:55:57;;;;;;;109.00;41.90;;;;;;;10.22;100.00;102185.13;5073495;28;20400;-73
2024/01/26 02:58:23;;;;;;;78.80;38.35;;;;;;;10.25;100.00;102190.38;5075837;28;20041;-73
2024/01/26 03:00:49;;;;;;;83.47;39.03;;;;;;;10.27;100.00;102192.97;5080304;28;20165;-73
2024/01/26 03:03:15;;;;;;;78.88;38.40;;;;;;;10.23;100.00;102188.66;5073153;28;20029;-73
2024/01/26 03:05:40;;;;;;;79.43;37.38;;;;;;;10.20;100.00;102187.00;5073760;28;20041;-73
2024/01/26 03:08:07;;;;;;;86.80;38.28;;;;;;;10.25;100.00;102187.72;5073329;28;20024;-72
2024/01/26 03:10:35;;;;;;;82.57;39.13;;;;;;;10.20;100.00;102175.47;5077542;28;20040;-73
2024/01/26 03:13:00;;;;;;;68.38;34.28;;;;;;;10.18;100.00;102179.97;5081001;28;20024;-73
2024/01/26 03:15:26;;;;;;;70.78;35.03;;;;;;;10.19;100.00;102179.03;5081777;28;20029;-73
2024/01/26 03:17:51;;;;;;;64.05;31.98;;;;;;;10.17;100.00;102165.78;5079524;28;20029;-73
2024/01/26 03:20:17;;;;;;;59.25;30.10;;;;;;;10.37;100.00;102159.69;5064760;28;20033;-73
2024/01/26 03:22:43;;;;;;;54.95;28.67;;;;;;;10.45;100.00;102152.25;5085057;28;20068;-73
2024/01/26 03:25:09;;;;;;;47.58;26.25;;;;;;;10.44;100.00;102136.28;5073040;28;20033;-73
2024/01/26 03:27:35;;;;;;;41.30;23.92;;;;;;;10.43;100.00;102134.56;5084675;28;20195;-73
2024/01/26 03:30:01;;;;;;;43.58;24.52;;;;;;;10.45;100.00;102135.38;5082867;28;21322;-73
2024/01/26 03:32:26;;;;;;;41.40;23.13;;;;;;;10.44;100.00;102122.94;5084391;28;20082;-73
2024/01/26 03:34:52;;;;;;;39.28;22.52;;;;;;;10.47;100.00;102118.34;5058505;28;20041;-73
2024/01/26 03:37:18;;;;;;;42.05;22.20;;;;;;;10.50;100.00;102110.25;5081819;28;20478;-74
2024/01/26 03:39:43;;;;;;;40.42;21.63;;;;;;;10.40;100.00;102105.38;5085394;28;20037;-73
2024/01/26 03:42:11;;;;;;;43.50;21.33;;;;;;;10.40;100.00;102097.38;5061776;28;20376;-73
2024/01/26 03:44:38;;;;;;;41.53;21.27;;;;;;;10.34;100.00;102095.81;5083155;28;20032;-73
2024/01/26 03:47:05;;;;;;;33.03;19.25;;;;;;;10.40;100.00;102081.38;5082332;28;20033;-73
2024/01/26 03:49:31;;;;;;;38.58;20.25;;;;;;;10.42;100.00;102085.69;5079180;28;20131;-72
2024/01/26 03:51:57;;;;;;;31.23;18.23;;;;;;;10.38;100.00;102071.63;5073167;28;20036;-73
2024/01/26 03:54:22;;;;;;;35.53;19.80;;;;;;;10.35;100.00;102065.56;5083908;28;20040;-73
2024/01/26 03:56:48;;;;;;;33.80;19.52;;;;;;;10.35;100.00;102084.22;5078614;28;20186;-72
2024/01/26 03:59:14;;;;;;;37.13;20.85;;;;;;;10.40;100.00;102073.38;5077344;28;20115;-73
2024/01/26 04:01:40;;;;;;;40.95;20.95;;;;;;;10.42;100.00;102077.69;5077526;28;20044;-73
2024/01/26 04:04:06;;;;;;;31.70;19.77;;;;;;;10.30;100.00;102086.22;5066366;28;20032;-73
2024/01/26 04:06:32;;;;;;;35.35;19.13;;;;;;;10.38;100.00;102071.63;5080028;28;20194;-73
2024/01/26 04:08:59;;;;;;;32.95;18.58;;;;;;;10.42;100.00;102069.69;5078452;28;20036;-73
2024/01/26 04:11:25;;;;;;;37.35;17.70;;;;;;;10.42;100.00;102060.81;5077593;28;20036;-73
2024/01/26 04:13:51;;;;;;;27.67;15.10;;;;;;;10.41;100.00;102053.78;5077866;28;20037;-73
2024/01/26 04:16:16;;;;;;;28.52;16.02;;;;;;;10.26;100.00;102050.81;5076685;28;20033;-73
2024/01/26 04:18:43;;;;;;;26.63;16.02;;;;;;;10.30;100.00;102056.91;5078781;28;20051;-73
2024/01/26 04:21:10;;;;;;;27.98;16.55;;;;;;;10.34;100.00;102054.03;5060779;28;20122;-73
2024/01/26 04:23:35;;;;;;;24.25;16.30;;;;;;;10.41;100.00;102067.09;5080246;28;20036;-72
2024/01/26 04:26:01;;;;;;;26.00;15.88;;;;;;;10.32;100.00;102065.69;5059775;28;20044;-73
2024/01/26 04:28:27;;;;;;;31.67;17.83;;;;;;;10.23;100.00;102047.38;5072176;28;20037;-73
2024/01/26 04:30:53;;;;;;;28.58;17.48;;;;;;;10.28;100.00;102045.41;5052870;28;20120;-73
2024/01/26 04:33:18;;;;;;;29.60;17.60;;;;;;;10.35;100.00;102042.44;5058938;28;20040;-74
2024/01/26 04:35:44;;;;;;;33.13;17.27;;;;;;;10.38;100.00;102036.94;5071252;28;20033;-73
2024/01/26 04:38:10;;;;;;;28.02;16.75;;;;;;;10.41;100.00;102037.78;5053832;28;20139;-73
2024/01/26 04:40:38;;;;;;;27.77;16.90;;;;;;;10.29;100.00;102041.81;5078195;28;20103;-73
2024/01/26 04:43:06;;;;;;;26.38;16.55;;;;;;;10.28;100.00;102029.41;5060504;28;20045;-73
2024/01/26 04:45:34;;;;;;;27.45;16.98;;;;;;;10.41;100.00;102024.44;5076555;28;20040;-73
2024/01/26 04:48:00;;;;;;;25.70;16.65;;;;;;;10.46;100.00;102039.28;5071259;28;20025;-73
2024/01/26 04:50:26;;;;;;;31.38;17.80;;;;;;;10.42;100.00;102020.81;5074824;28;20033;-72
2024/01/26 04:52:52;;;;;;;29.63;17.65;;;;;;;10.48;100.00;102001.88;5062679;28;20036;-73
2024/01/26 04:55:21;;;;;;;26.65;16.15;;;;;;;10.40;100.00;101991.56;5075513;28;20139;-73
2024/01/26 04:57:47;;;;;;;27.67;16.00;;;;;;;10.46;100.00;101991.28;5052904;28;20064;-72
2024/01/26 05:00:13;;;;;;;25.17;16.13;;;;;;;10.45;100.00;101994.03;5048693;28;20870;-73
2024/01/26 05:02:39;;;;;;;28.73;16.95;;;;;;;10.38;100.00;101991.63;5092731;27;20143;-73
2024/01/26 05:05:05;;;;;;;30.55;17.17;;;;;;;10.41;100.00;101971.97;5040876;28;20824;-72
2024/01/26 05:07:31;;;;;;;30.20;16.52;;;;;;;10.49;100.00;101959.16;5064660;28;20143;-74
2024/01/26 05:09:56;;;;;;;23.58;15.50;;;;;;;10.52;100.00;101964.34;5074528;28;20028;-72
2024/01/26 05:12:22;;;;;;;28.98;17.13;;;;;;;10.39;100.00;101973.81;5079880;28;20037;-72
2024/01/26 05:14:47;;;;;;;30.30;16.83;;;;;;;10.52;100.00;101967.00;5077846;28;20032;-74
2024/01/26 05:17:13;;;;;;;24.63;15.68;;;;;;;10.51;100.00;101967.09;5073000;28;20037;-74
2024/01/26 05:19:38;;;;;;;28.38;15.50;;;;;;;10.52;100.00;101961.69;5056398;28;20505;-73
2024/01/26 05:22:05;;;;;;;29.35;16.30;;;;;;;10.53;100.00;101990.06;5076024;28;20048;-74
2024/01/26 05:24:31;;;;;;;28.27;16.40;;;;;;;10.46;100.00;101982.44;5074018;28;20057;-72
2024/01/26 05:26:56;;;;;;;29.50;17.92;;;;;;;10.53;100.00;101990.06;5043119;28;20135;-74
2024/01/26 05:29:22;;;;;;;31.30;18.10;;;;;;;10.40;100.00;101986.25;5081040;28;20485;-72
2024/01/26 05:31:48;;;;;;;28.98;17.80;;;;;;;10.56;100.00;101992.63;5076424;28;20628;-72
2024/01/26 05:34:13;;;;;;;30.15;17.38;;;;;;;10.53;100.00;101987.41;5081056;28;20868;-74
2024/01/26 05:36:43;;;;;;;28.25;17.30;;;;;;;10.62;100.00;101981.66;5077293;28;20056;-74
2024/01/26 05:39:10;;;;;;;25.67;17.77;;;;;;;10.59;100.00;101964.94;5084145;28;20033;-74
2024/01/26 05:41:36;;;;;;;30.85;19.10;;;;;;;10.58;100.00;101957.88;5060767;28;20054;-74
2024/01/26 05:44:02;;;;;;;28.83;18.70;;;;;;;10.50;100.00;101947.56;5075990;28;20120;-74
2024/01/26 05:46:27;;;;;;;30.55;18.38;;;;;;;10.62;100.00;101939.00;5072184;28;20504;-74
2024/01/26 05:48:53;;;;;;;30.63;20.23;;;;;;;10.52;100.00;101937.69;5079690;28;20131;-74
2024/01/26 05:51:19;;;;;;;30.35;19.45;;;;;;;10.65;100.00;101932.66;5073404;28;20047;-74
2024/01/26 05:53:45;;;;;;;35.63;19.73;;;;;;;10.54;100.00;101918.94;5075684;28;20147;-74
2024/01/26 05:56:10;;;;;;;31.80;18.50;;;;;;;10.58;100.00;101913.38;5075908;28;20081;-73
2024/01/26 05:58:36;;;;;;;35.58;18.42;;;;;;;10.52;100.00;101904.81;5082269;28;20024;-74
2024/01/26 06:01:01;;;;;;;36.13;20.75;;;;;;;10.48;100.00;101913.88;5082059;28;20448;-75
2024/01/26 06:03:27;;;;;;;33.80;22.17;;;;;;;10.55;100.00;101899.34;5073875;28;20033;-74
2024/01/26 06:05:52;;;;;;;35.13;20.88;;;;;;;10.53;100.00;101896.72;5079306;28;20440;-74
2024/01/26 06:08:18;;;;;;;33.72;19.20;;;;;;;10.61;100.00;101891.91;5075258;28;20024;-73
2024/01/26 06:10:43;;;;;;;36.25;19.17;;;;;;;10.43;100.00;101894.56;5077090;28;20106;-73
2024/01/26 06:13:09;;;;;;;33.70;18.80;;;;;;;10.50;100.00;101893.38;5089530;27;20097;-73
2024/01/26 06:15:36;;;;;;;33.83;19.98;;;;;;;10.45;100.00;101890.03;5050392;28;20113;-72
2024/01/26 06:18:02;;;;;;;26.83;18.58;;;;;;;10.45;100.00;101887.38;5069881;28;20539;-73
2024/01/26 06:20:31;;;;;;;31.83;20.30;;;;;;;10.57;100.00;101887.66;5076090;28;20115;-73
2024/01/26 06:23:00;;;;;;;30.92;19.92;;;;;;;10.36;100.00;101880.66;5071636;28;20569;-73
2024/01/26 06:25:26;;;;;;;32.22;18.30;;;;;;;10.43;100.00;101884.75;5059402;28;20047;-73
2024/01/26 06:27:52;;;;;;;37.33;19.67;;;;;;;10.48;100.00;101898.75;5064569;28;20136;-73
2024/01/26 06:30:18;;;;;;;33.05;19.30;;;;;;;10.36;100.00;101894.00;5070682;28;20106;-73
2024/01/26 06:32:44;;;;;;;35.83;20.23;;;;;;;10.43;100.00;101897.22;5072704;27;20096;-73
2024/01/26 06:35:10;;;;;;;31.23;19.17;;;;;;;10.44;100.00;101886.50;5066695;28;20029;-73
2024/01/26 06:37:36;;;;;;;35.28;18.88;;;;;;;10.37;100.00;101885.03;5079439;28;20121;-73
2024/01/26 06:40:05;;;;;;;30.73;18.45;;;;;;;10.38;100.00;101892.09;5079289;28;20035;-73
2024/01/26 06:42:32;;;;;;;36.35;20.63;;;;;;;10.37;100.00;101895.72;5072780;28;20670;-74
2024/01/26 06:44:59;;;;;;;38.65;23.80;;;;;;;10.28;100.00;101894.31;5055808;28;20128;-73
2024/01/26 06:47:25;;;;;;;42.00;23.67;;;;;;;10.35;100.00;101897.59;5074582;28;20765;-73
2024/01/26 06:49:51;;;;;;;39.22;20.95;;;;;;;10.32;100.00;101895.06;5077738;28;20047;-73
2024/01/26 06:52:16;;;;;;;36.10;20.75;;;;;;;10.35;100.00;101887.78;5058300;28;20074;-72
2024/01/26 06:54:42;;;;;;;33.00;20.20;;;;;;;10.23;100.00;101882.97;5076892;28;20113;-75
2024/01/26 06:57:08;;;;;;;38.67;22.17;;;;;;;10.18;100.00;101895.63;5074894;28;20031;-75
2024/01/26 06:59:37;;;;;;;48.47;23.50;;;;;;;10.23;100.00;101885.63;5076728;28;20045;-72
2024/01/26 07:02:06;;;;;;;38.17;20.63;;;;;;;10.16;100.00;101897.53;5068629;28;20047;-72
2024/01/26 07:04:32;;;;;;;45.95;23.05;;;;;;;10.13;100.00;101890.50;5055648;28;20994;-72
2024/01/26 07:06:58;;;;;;;38.25;21.52;;;;;;;10.25;100.00;101897.16;5088147;27;20028;-72
2024/01/26 07:09:23;;;;;;;48.58;25.42;;;;;;;10.21;100.00;101892.84;5073628;28;20025;-73
2024/01/26 07:11:49;;;;;;;39.70;22.67;;;;;;;10.16;100.00;101891.31;5072130;28;20036;-73
2024/01/26 07:14:14;;;;;;;42.33;23.63;;;;;;;10.27;100.00;101891.72;5075496;28;20047;-75
2024/01/26 07:16:40;;;;;;;44.08;24.20;;;;;;;10.29;100.00;101876.53;5072288;28;20395;-75
2024/01/26 07:19:06;;;;;;;41.05;24.88;;;;;;;10.26;100.00;101876.69;5062179;28;20037;-74
2024/01/26 07:21:31;;;;;;;43.88;24.42;;;;;;;10.22;100.00;101881.25;5055956;28;20375;-75
2024/01/26 07:24:00;;;;;;;50.80;26.38;;;;;;;10.33;100.00;101878.13;5073094;28;20040;-73
2024/01/26 07:26:26;;;;;;;38.17;21.92;;;;;;;10.25;100.00;101878.47;5072409;28;21214;-74
2024/01/26 07:28:52;;;;;;;39.45;23.42;;;;;;;10.23;100.00;101874.09;5074276;28;20040;-75
2024/01/26 07:31:17;;;;;;;39.15;22.27;;;;;;;10.27;100.00;101857.09;5077360;28;20016;-74
2024/01/26 07:33:43;;;;;;;42.55;22.67;;;;;;;10.26;100.00;101860.69;5081463;28;20044;-74
2024/01/26 07:36:09;;;;;;;36.42;21.02;;;;;;;10.31;100.00;101867.53;5075506;28;20663;-74
2024/01/26 07:38:35;;;;;;;33.17;20.17;;;;;;;10.35;100.00;101847.81;5075386;28;20036;-73
2024/01/26 07:41:01;;;;;;;33.63;19.42;;;;;;;10.32;100.00;101871.06;5069242;28;20035;-74
2024/01/26 07:43:26;;;;;;;40.05;21.33;;;;;;;10.41;100.00;101870.66;5077543;28;20973;-74
2024/01/26 07:45:52;;;;;;;31.38;19.42;;;;;;;10.38;100.00;101862.78;5074356;28;20088;-73
2024/01/26 07:48:17;;;;;;;31.75;18.60;;;;;;;10.43;100.00;101854.56;5072670;28;20036;-73
2024/01/26 07:50:43;;;;;;;30.98;19.50;;;;;;;10.47;100.00;101891.69;5075699;28;20040;-73
2024/01/26 07:53:09;;;;;;;31.70;19.58;;;;;;;10.47;100.00;101875.69;5081684;28;20100;-73
2024/01/26 07:55:36;;;;;;;31.98;19.40;;;;;;;10.56;100.00;101877.06;5079075;28;20054;-73
2024/01/26 07:58:06;;;;;;;28.73;16.77;;;;;;;10.46;100.00;101862.44;5082260;28;20039;-73
2024/01/26 08:00:35;;;;;;;32.05;18.60;;;;;;;10.57;100.00;101866.31;5077100;28;20108;-73
2024/01/26 08:03:00;;;;;;;26.38;17.30;;;;;;;10.59;100.00;101864.47;5075460;28;20049;-73
2024/01/26 08:05:26;;;;;;;27.40;18.77;;;;;;;10.62;100.00;101879.44;5080318;28;20039;-73
2024/01/26 08:07:52;;;;;;;29.13;17.05;;;;;;;10.62;100.00;101882.13;5078214;28;20027;-73
2024/01/26 08:10:17;;;;;;;29.67;18.30;;;;;;;10.65;100.00;101881.97;5058902;28;20050;-73
2024/01/26 08:12:45;;;;;;;30.63;18.60;;;;;;;10.68;100.00;101883.63;5083981;28;20044;-74
2024/01/26 08:15:10;;;;;;;27.58;18.17;;;;;;;10.80;100.00;101888.41;5064864;28;20036;-73
2024/01/26 08:17:37;;;;;;;29.85;18.38;;;;;;;10.83;100.00;101874.88;5074297;28;20063;-73
2024/01/26 08:20:06;;;;;;;31.17;19.33;;;;;;;10.75;100.00;101877.06;5074604;28;20036;-73
2024/01/26 08:22:31;;;;;;;33.40;20.42;;;;;;;10.76;100.00;101876.13;5085641;28;20036;-72
2024/01/26 08:25:00;;;;;;;33.65;19.52;;;;;;;10.74;100.00;101883.31;5082631;28;20174;-73
2024/01/26 08:27:26;;;;;;;31.25;18.92;;;;;;;10.76;100.00;101886.81;5074567;28;20093;-74
2024/01/26 08:29:52;;;;;;;32.58;18.85;;;;;;;10.82;100.00;101891.84;5068237;28;20102;-73
2024/01/26 08:32:18;;;;;;;26.05;17.15;;;;;;;10.83;100.00;101888.22;5080089;28;20051;-73
2024/01/26 08:34:44;;;;;;;30.10;17.55;;;;;;;10.86;100.00;101883.63;5078740;28;20028;-73
2024/01/26 08:37:10;;;;;;;27.55;17.05;;;;;;;10.84;100.00;101882.84;5075713;28;20044;-73
2024/01/26 08:39:36;;;;;;;28.95;15.88;;;;;;;10.96;100.00;101892.06;5074957;28;20063;-72
2024/01/26 08:42:02;;;;;;;25.20;15.18;;;;;;;10.98;100.00;101878.63;5087611;28;20122;-74
2024/01/26 08:44:31;;;;;;;28.88;16.35;;;;;;;11.04;100.00;101855.16;5078348;28;20039;-74
2024/01/26 08:46:57;;;;;;;23.27;15.73;;;;;;;11.13;100.00;101862.72;5062060;28;20040;-73
2024/01/26 08:49:22;;;;;;;25.38;16.05;;;;;;;11.14;100.00;101860.91;5077846;28;20024;-74
2024/01/26 08:51:48;;;;;;;28.75;16.50;;;;;;;11.20;100.00;101849.97;5060781;28;20047;-73
2024/01/26 08:54:14;;;;;;;27.65;17.10;;;;;;;11.27;100.00;101839.81;5056240;28;20051;-73
2024/01/26 08:56:41;;;;;;;24.67;17.17;;;;;;;11.26;100.00;101825.63;5075685;28;20048;-74
2024/01/26 08:59:09;;;;;;;25.88;18.13;;;;;;;11.30;100.00;101837.88;5061771;28;20048;-73
2024/01/26 09:01:36;;;;;;;25.88;17.67;;;;;;;11.33;100.00;101834.16;5057895;28;20048;-73
2024/01/26 09:04:05;;;;;;;26.33;16.95;;;;;;;11.41;100.00;101829.31;5083466;28;20101;-73
2024/01/26 09:06:32;;;;;;;24.55;16.67;;;;;;;11.35;100.00;101824.28;5081322;28;20577;-73
2024/01/26 09:08:59;;;;;;;27.38;17.42;;;;;;;11.39;100.00;101821.34;5083755;28;20032;-73
2024/01/26 09:11:25;;;;;;;27.17;17.00;;;;;;;11.43;100.00;101827.41;5075837;28;20158;-72
2024/01/26 09:13:51;;;;;;;25.30;16.70;;;;;;;11.40;100.00;101823.09;5058827;28;20061;-73
2024/01/26 09:16:16;;;;;;;26.45;16.80;;;;;;;11.35;100.00;101840.31;5075238;28;20481;-75
2024/01/26 09:18:42;;;;;;;24.17;17.80;;;;;;;11.38;100.00;101837.47;5057694;28;20143;-75
2024/01/26 09:21:11;;;;;;;24.00;16.02;;;;;;;11.31;100.00;101847.59;5079676;28;20768;-75
2024/01/26 09:23:37;;;;;;;29.85;16.10;;;;;;;11.30;100.00;101850.38;5081784;28;20092;-76
2024/01/26 09:26:06;;;;;;;24.42;15.50;;;;;;;11.30;100.00;101858.38;5082317;28;20139;-76
2024/01/26 09:28:31;;;;;;;25.48;16.02;;;;;;;11.36;100.00;101879.41;5076826;28;20025;-75
2024/01/26 09:30:58;;;;;;;19.33;13.20;;;;;;;11.26;100.00;101872.81;5058237;28;20037;-75
2024/01/26 09:33:23;;;;;;;20.05;12.48;;;;;;;11.23;100.00;101884.50;5055637;28;20047;-73
2024/01/26 09:35:49;;;;;;;18.17;11.10;;;;;;;11.25;100.00;101889.78;5076935;28;20040;-73
2024/01/26 09:38:15;;;;;;;15.00;10.07;;;;;;;11.15;100.00;101914.25;5064582;28;20056;-76
2024/01/26 09:40:42;;;;;;;21.13;8.18;;;;;;;11.25;100.00;101892.44;5050903;28;20133;-73
2024/01/26 09:43:09;;;;;;;23.73;7.57;;;;;;;11.25;100.00;101904.00;5050288;28;20053;-75
2024/01/26 09:45:35;;;;;;;15.40;6.97;;;;;;;11.12;100.00;101911.72;5063267;28;20045;-76
2024/01/26 09:48:05;;;;;;;18.98;6.60;;;;;;;11.17;100.00;101926.66;5045968;28;20032;-73
2024/01/26 09:50:31;;;;;;;13.45;5.00;;;;;;;11.12;100.00;101935.75;5033147;28;20038;-76
2024/01/26 09:53:03;;;;;;;8.88;4.03;;;;;;;11.13;100.00;101926.78;5052636;28;20032;-73
2024/01/26 09:55:36;;;;;;;10.68;3.42;;;;;;;11.13;100.00;101913.44;5046852;28;20514;-76
2024/01/26 09:58:02;;;;;;;9.10;2.72;;;;;;;11.02;100.00;101907.75;5046318;28;20032;-73
2024/01/26 10:00:28;;;;;;;9.43;2.50;;;;;;;11.12;100.00;101933.06;5075470;28;20037;-73
2024/01/26 10:02:54;;;;;;;15.32;2.65;;;;;;;11.18;100.00;101928.38;5044673;28;20052;-75
2024/01/26 10:05:20;;;;;;;12.30;3.40;;;;;;;10.99;100.00;101939.94;5046822;28;20025;-74
2024/01/26 10:07:47;;;;;;;11.85;3.28;;;;;;;10.48;100.00;101978.75;5039082;28;20222;-73
2024/01/26 10:10:13;;;;;;;6.55;4.13;;;;;;;9.66;100.00;101967.16;5041901;28;20048;-75
2024/01/26 10:12:41;;;;;;;4.68;1.35;;;;;;;9.39;100.00;101968.28;5044538;28;20025;-75
2024/01/26 10:15:11;;;;;;;6.60;1.80;;;;;;;9.26;100.00;101975.91;5049226;28;20074;-74
2024/01/26 10:17:37;;;;;;;6.70;2.13;;;;;;;9.20;100.00;101979.69;5061791;28;20582;-76
2024/01/26 10:20:09;;;;;;;5.82;1.67;;;;;;;9.13;100.00;101985.28;5048693;28;20520;-75
2024/01/26 10:22:37;;;;;;;7.15;2.05;;;;;;;9.22;100.00;101996.44;5048572;28;20037;-75
2024/01/26 10:25:05;;;;;;;11.95;1.75;;;;;;;9.24;100.00;102007.06;5051210;28;20037;-75
2024/01/26 10:27:32;;;;;;;7.68;1.60;;;;;;;9.15;100.00;102013.59;5048502;28;20033;-75
2024/01/26 10:30:01;;;;;;;3.28;1.38;;;;;;;9.18;100.00;102024.09;5082255;28;20588;-75
2024/01/26 10:32:28;;;;;;;11.93;1.40;;;;;;;9.27;100.00;102030.88;5048564;28;20037;-75
2024/01/26 10:35:00;;;;;;;10.13;2.35;;;;;;;9.34;100.00;102038.56;5050010;28;20095;-75
2024/01/26 10:37:28;;;;;;;8.03;1.70;;;;;;;9.30;100.00;102042.28;5060501;28;20282;-75
2024/01/26 10:39:57;;;;;;;9.82;1.73;;;;;;;9.38;100.00;102038.44;5065082;28;20391;-75
2024/01/26 10:42:24;;;;;;;10.07;1.85;;;;;;;9.48;100.00;102039.81;5070914;28;20036;-75
2024/01/26 10:44:51;;;;;;;12.55;2.60;;;;;;;9.65;100.00;102044.47;5086423;27;20055;-74
2024/01/26 10:47:20;;;;;;;11.95;2.10;;;;;;;9.64;100.00;102046.28;5075811;28;20059;-74
2024/01/26 10:49:49;;;;;;;11.02;2.28;;;;;;;9.50;100.00;102056.59;5075564;28;20062;-75
2024/01/26 10:52:20;;;;;;;10.75;2.25;;;;;;;9.62;100.00;102057.91;5079619;28;20032;-75
2024/01/26 10:54:50;;;;;;;14.85;2.45;;;;;;;9.70;100.00;102059.34;5066438;28;20083;-75
2024/01/26 10:57:17;;;;;;;19.48;3.05;;;;;;;9.73;100.00;102067.19;5069062;28;20028;-74